Time;durP1;ratioP1;P1;durP2;ratioP2;P2;SDS_P1;SDS_P2;PMS_P1;PMS_P2;Temp;Humidity;BMP_temperature;BMP_pressure;BME280_temperature;BME280_humidity;BME280_pressure;Samples;Min_cycle;Max_cycle;Signal;HPM_P1;HPM_P2
2022/11/03 00:01:40;;;;;;;8.40;5.72;;;;;;;21.98;42.04;95311.13;5061948;28;20033;-64
2022/11/03 00:04:06;;;;;;;8.25;5.60;;;;;;;22.96;42.14;95463.66;5013396;28;20057;-65
2022/11/03 00:06:32;;;;;;;8.75;5.78;;;;;;;22.75;42.35;95430.94;5060459;28;20534;-73
2022/11/03 00:08:58;;;;;;;9.13;6.28;;;;;;;22.06;42.44;95328.47;5042890;28;20044;-71
2022/11/03 00:11:24;;;;;;;10.13;6.10;;;;;;;22.96;42.28;95463.66;5025187;28;20087;-67
2022/11/03 00:13:49;;;;;;;7.72;5.72;;;;;;;22.94;42.29;95463.44;5059959;28;20055;-68
2022/11/03 00:16:15;;;;;;;8.10;5.32;;;;;;;22.79;42.33;95447.78;5026418;28;20669;-73
2022/11/03 00:18:40;;;;;;;7.85;5.70;;;;;;;22.93;42.45;95459.22;5030922;28;20543;-67
2022/11/03 00:21:07;;;;;;;8.00;5.40;;;;;;;22.96;42.35;95460.94;5058219;28;20467;-61
2022/11/03 00:23:34;;;;;;;8.43;6.13;;;;;;;22.82;42.29;95446.81;5009207;28;20041;-67
2022/11/03 00:26:04;;;;;;;10.00;6.43;;;;;;;22.91;42.43;95469.84;5025213;28;20138;-67
2022/11/03 00:28:31;;;;;;;8.33;5.87;;;;;;;22.91;42.75;95474.53;5042327;28;20097;-66
2022/11/03 00:30:56;;;;;;;8.73;6.05;;;;;;;22.91;42.32;95461.66;5025307;28;20063;-74
2022/11/03 00:33:25;;;;;;;8.82;5.68;;;;;;;22.90;42.62;95457.44;5040720;28;20509;-70
2022/11/03 00:35:55;;;;;;;10.82;5.85;;;;;;;22.92;42.66;95462.41;5059588;28;20044;-72
2022/11/03 00:38:21;;;;;;;10.15;6.40;;;;;;;22.81;42.50;95456.19;5026263;28;20406;-73
2022/11/03 00:41:00;;;;;;;7.88;5.97;;;;;;;22.91;42.52;95461.66;5025439;28;20107;-67
2022/11/03 00:43:27;;;;;;;7.30;5.53;;;;;;;22.89;42.57;95469.56;5026364;28;20052;-72
2022/11/03 00:45:53;;;;;;;7.40;5.28;;;;;;;22.85;42.56;95451.25;5042017;28;20389;-67
2022/11/03 00:48:33;;;;;;;7.80;5.65;;;;;;;22.82;42.65;95457.69;5033357;28;20047;-71
2022/11/03 00:51:05;;;;;;;9.90;6.13;;;;;;;22.90;42.44;95465.63;5054145;28;20543;-67
2022/11/03 00:53:31;;;;;;;8.57;5.47;;;;;;;22.89;42.74;95469.56;5045822;28;20048;-67
2022/11/03 00:55:57;;;;;;;7.47;5.53;;;;;;;22.70;42.72;95450.75;5045718;28;20044;-73
2022/11/03 00:58:22;;;;;;;7.45;5.57;;;;;;;22.89;42.62;95477.75;5046071;28;20132;-62
2022/11/03 01:00:48;;;;;;;7.30;4.97;;;;;;;22.89;42.77;95475.00;5062305;28;20048;-71
2022/11/03 01:03:13;;;;;;;8.55;5.57;;;;;;;22.81;42.46;95461.66;5063710;28;20040;-67
2022/11/03 01:08:33;;;;;;;7.78;5.60;;;;;;;22.88;42.94;95469.34;5034590;28;20524;-69
2022/11/03 01:13:53;;;;;;;7.50;5.63;;;;;;;21.25;42.53;95233.16;5063315;28;20397;-70
2022/11/03 01:16:19;;;;;;;8.15;5.53;;;;;;;22.87;42.91;95476.00;5046545;28;20028;-72
2022/11/03 01:18:44;;;;;;;7.70;5.60;;;;;;;22.86;43.01;95469.09;5063121;28;20808;-70
2022/11/03 01:21:09;;;;;;;8.43;5.25;;;;;;;22.85;42.56;95478.50;5028355;28;20041;-73
2022/11/03 01:23:35;;;;;;;7.43;5.32;;;;;;;22.85;42.94;95478.50;5061924;28;20106;-70
2022/11/03 01:26:07;;;;;;;7.30;5.45;;;;;;;22.86;42.70;95474.53;5044385;28;20052;-62
2022/11/03 01:28:36;;;;;;;7.63;5.40;;;;;;;22.85;43.00;95497.56;5046137;28;20143;-66
2022/11/03 01:31:06;;;;;;;8.00;5.40;;;;;;;22.85;42.94;95486.66;5028444;28;20045;-67
2022/11/03 01:33:32;;;;;;;8.27;5.43;;;;;;;22.83;42.96;95476.25;5029113;28;20731;-63
2022/11/03 01:35:57;;;;;;;9.10;5.18;;;;;;;22.82;43.03;95468.59;5045144;28;20149;-73
2022/11/03 01:38:23;;;;;;;7.88;5.20;;;;;;;22.84;42.73;95498.78;5012032;28;20524;-69
2022/11/03 01:40:48;;;;;;;8.75;5.97;;;;;;;22.64;42.77;95441.84;5028385;28;20021;-68
2022/11/03 01:43:19;;;;;;;7.68;5.07;;;;;;;22.84;42.68;95477.00;5028777;28;20413;-66
2022/11/03 01:45:44;;;;;;;7.63;5.28;;;;;;;22.76;43.17;95465.13;5018312;28;20049;-72
2022/11/03 01:48:10;;;;;;;8.52;5.10;;;;;;;22.82;42.66;95484.91;5040400;28;20493;-68
2022/11/03 01:50:35;;;;;;;8.02;5.45;;;;;;;22.69;42.69;95481.94;5028333;28;20908;-70
2022/11/03 01:53:00;;;;;;;7.30;5.30;;;;;;;22.79;42.92;95480.47;5044735;28;20052;-69
2022/11/03 01:55:28;;;;;;;7.13;4.95;;;;;;;22.78;42.80;95487.13;5062881;28;20044;-65
2022/11/03 01:58:06;;;;;;;6.72;4.90;;;;;;;22.68;42.74;95475.00;5044536;28;20052;-63
2022/11/03 02:00:32;;;;;;;7.32;5.72;;;;;;;22.80;43.42;95490.84;5028658;28;20094;-60
2022/11/03 02:02:57;;;;;;;8.80;5.68;;;;;;;22.81;43.08;95502.50;5011131;28;20040;-72
2022/11/03 02:05:23;;;;;;;6.88;5.20;;;;;;;22.79;42.81;95510.41;5043793;28;20049;-67
2022/11/03 02:07:54;;;;;;;7.90;5.68;;;;;;;22.80;42.77;95498.31;5028628;28;20105;-68
2022/11/03 02:10:21;;;;;;;7.53;5.30;;;;;;;22.76;42.80;95492.34;5028793;28;20036;-61
2022/11/03 02:12:46;;;;;;;6.95;4.82;;;;;;;21.93;42.96;95358.09;5044032;28;20059;-73
2022/11/03 02:15:13;;;;;;;8.00;5.50;;;;;;;22.45;42.88;95440.81;5044129;28;20613;-72
2022/11/03 02:17:39;;;;;;;7.85;5.40;;;;;;;22.79;43.34;95496.81;5044311;28;20052;-73
2022/11/03 02:20:12;;;;;;;7.60;5.07;;;;;;;22.78;43.21;95492.59;5043738;28;20047;-71
2022/11/03 02:22:37;;;;;;;8.45;5.57;;;;;;;22.78;43.21;95493.34;5027746;28;20105;-74
2022/11/03 02:25:17;;;;;;;7.35;5.25;;;;;;;22.78;42.93;95489.84;5062232;28;20590;-61
2022/11/03 02:27:42;;;;;;;7.68;5.75;;;;;;;22.49;43.05;95452.22;5027347;28;20895;-64
2022/11/03 02:30:08;;;;;;;7.05;5.20;;;;;;;22.78;42.97;95484.41;5028004;28;20048;-70
2022/11/03 02:32:57;;;;;;;7.57;5.20;;;;;;;22.76;43.23;95492.34;5062283;28;20452;-70
2022/11/03 02:35:54;;;;;;;6.63;4.90;;;;;;;22.74;42.85;95475.75;4995419;28;20102;-68
2022/11/03 02:38:19;;;;;;;8.85;5.50;;;;;;;22.66;43.04;95485.63;5020858;28;20037;-70
2022/11/03 02:40:48;;;;;;;8.48;5.70;;;;;;;22.77;43.01;95488.41;5038120;28;20032;-66
2022/11/03 02:43:14;;;;;;;7.85;5.47;;;;;;;22.66;43.26;95478.22;5044498;28;20048;-71
2022/11/03 02:45:39;;;;;;;7.00;5.05;;;;;;;22.65;43.27;95492.34;5034426;28;20059;-68
2022/11/03 02:48:05;;;;;;;8.55;5.40;;;;;;;21.81;43.04;95333.34;5022163;28;20425;-64
2022/11/03 02:50:31;;;;;;;6.85;5.03;;;;;;;22.76;43.07;95492.34;5040535;28;20087;-73
2022/11/03 02:52:57;;;;;;;7.80;5.35;;;;;;;22.59;42.97;95461.63;5021673;28;20496;-71
2022/11/03 02:55:32;;;;;;;7.60;5.40;;;;;;;22.58;43.19;95462.88;5043456;28;20047;-68
2022/11/03 02:58:24;;;;;;;8.52;5.43;;;;;;;22.75;42.86;95488.13;5062096;28;20142;-67
2022/11/03 03:01:13;;;;;;;6.32;4.95;;;;;;;22.74;43.26;95490.09;5045867;28;20044;-69
2022/11/03 03:03:47;;;;;;;7.20;5.40;;;;;;;22.73;43.13;95487.88;5029585;28;20075;-71
2022/11/03 03:06:23;;;;;;;7.72;5.47;;;;;;;22.63;43.34;95467.56;5043127;28;20040;-62
2022/11/03 03:09:00;;;;;;;7.47;5.18;;;;;;;22.73;43.23;95482.44;5028044;28;20044;-70
2022/11/03 03:11:37;;;;;;;6.95;5.07;;;;;;;22.73;43.33;95487.88;5026367;28;20512;-76
2022/11/03 03:14:14;;;;;;;7.30;5.18;;;;;;;21.92;43.26;95371.47;5044038;28;20272;-69
2022/11/03 03:17:05;;;;;;;7.13;5.78;;;;;;;22.71;43.28;95479.47;5061536;28;20032;-68
2022/11/03 03:19:51;;;;;;;7.10;5.63;;;;;;;22.71;43.26;95484.91;5031663;28;20060;-70
2022/11/03 03:22:58;;;;;;;7.68;5.60;;;;;;;22.72;43.35;95486.38;5043003;28;20044;-71
2022/11/03 03:25:35;;;;;;;6.95;5.38;;;;;;;22.71;43.53;95484.91;5046784;28;20200;-65
2022/11/03 03:28:07;;;;;;;7.45;5.35;;;;;;;22.71;43.14;95490.38;5026677;28;20048;-68
2022/11/03 03:30:32;;;;;;;8.50;5.55;;;;;;;22.35;43.40;95430.69;5010133;28;20048;-74
2022/11/03 03:32:58;;;;;;;7.93;5.47;;;;;;;22.68;43.27;95475.00;5026085;28;20446;-70
2022/11/03 03:35:25;;;;;;;7.93;5.72;;;;;;;22.61;43.45;95480.94;5042833;28;20478;-65
2022/11/03 03:37:52;;;;;;;9.10;5.82;;;;;;;22.68;43.45;95483.19;5043761;28;20109;-68
2022/11/03 03:40:21;;;;;;;7.45;5.40;;;;;;;22.59;43.48;95467.09;5010834;28;20086;-70
2022/11/03 03:42:46;;;;;;;8.13;5.32;;;;;;;22.57;43.36;95469.53;5026113;28;20513;-68
2022/11/03 03:45:12;;;;;;;8.13;5.70;;;;;;;21.79;43.09;95352.13;5060786;28;20055;-65
2022/11/03 03:47:37;;;;;;;7.47;5.60;;;;;;;22.68;43.50;95494.06;5026658;28;20660;-70
2022/11/03 03:50:03;;;;;;;7.45;5.65;;;;;;;21.76;43.28;95347.69;5033494;28;20139;-63
2022/11/03 03:52:28;;;;;;;7.85;5.72;;;;;;;22.51;43.37;95460.63;5061720;28;20028;-68
2022/11/03 03:54:54;;;;;;;8.27;5.65;;;;;;;22.23;43.51;95427.19;5026402;28;20409;-71
2022/11/03 03:57:21;;;;;;;8.45;5.95;;;;;;;22.41;43.46;95445.78;5042534;28;20425;-70
2022/11/03 03:59:46;;;;;;;8.23;6.03;;;;;;;22.68;43.27;95485.91;5060726;28;20059;-66
2022/11/03 04:02:12;;;;;;;10.07;6.53;;;;;;;22.66;43.12;95488.34;5042588;28;20040;-72
2022/11/03 04:04:37;;;;;;;7.88;5.57;;;;;;;22.28;43.62;95431.88;5042503;28;20693;-73
2022/11/03 04:09:46;;;;;;;8.40;5.65;;;;;;;22.62;43.01;95487.88;5060855;28;20201;-75
2022/11/03 04:23:11;;;;;;;8.02;5.80;;;;;;;22.58;43.54;95476.47;5047040;28;20472;-75
2022/11/03 04:25:36;;;;;;;7.72;5.60;;;;;;;21.81;43.39;95371.41;5060859;28;20040;-64
2022/11/03 04:28:08;;;;;;;7.95;5.50;;;;;;;22.67;43.62;95484.41;5065171;28;20150;-66
2022/11/03 04:30:33;;;;;;;7.72;5.82;;;;;;;22.17;42.92;95393.75;5014738;28;20045;-65
2022/11/03 04:32:59;;;;;;;9.63;6.28;;;;;;;22.70;43.27;95488.88;5032932;28;20406;-66
2022/11/03 04:35:25;;;;;;;9.48;5.80;;;;;;;22.69;43.63;95476.47;5048720;28;20405;-72
2022/11/03 04:37:56;;;;;;;7.90;5.95;;;;;;;22.46;43.86;95453.94;5047375;28;20167;-60
2022/11/03 04:40:21;;;;;;;9.75;6.05;;;;;;;22.69;43.75;95477.25;5035029;28;20111;-71
2022/11/03 04:42:47;;;;;;;8.80;6.00;;;;;;;22.70;43.59;95483.41;5068881;28;20036;-73
2022/11/03 04:45:23;;;;;;;8.85;6.03;;;;;;;22.69;43.58;95484.66;5048738;28;20256;-73
2022/11/03 04:47:49;;;;;;;9.77;6.03;;;;;;;22.68;43.89;95485.91;5044847;28;20048;-65
2022/11/03 04:50:18;;;;;;;8.02;5.80;;;;;;;22.61;44.17;95470.03;5029259;28;20040;-70
2022/11/03 04:52:43;;;;;;;9.77;5.93;;;;;;;22.68;44.01;95502.25;5047650;28;20037;-67
2022/11/03 04:55:12;;;;;;;8.23;5.55;;;;;;;22.61;44.07;95481.66;5030776;28;20151;-64
2022/11/03 04:57:39;;;;;;;9.55;6.05;;;;;;;22.68;44.16;95491.34;5009682;28;20165;-69
2022/11/03 05:00:05;;;;;;;8.40;5.78;;;;;;;22.77;43.88;95477.50;5043153;28;20045;-67
2022/11/03 05:02:31;;;;;;;8.02;5.63;;;;;;;22.79;43.65;95481.19;5018971;28;20272;-75
2022/11/03 05:04:56;;;;;;;7.82;5.95;;;;;;;22.76;43.92;95486.91;5042824;28;20036;-68
2022/11/03 05:07:25;;;;;;;7.80;5.72;;;;;;;22.70;43.69;95516.09;5031147;28;20040;-65
2022/11/03 05:09:51;;;;;;;10.35;6.50;;;;;;;22.72;43.87;95486.38;5042239;28;20055;-63
2022/11/03 05:12:17;;;;;;;9.82;6.43;;;;;;;22.70;43.72;95495.03;5028651;28;20040;-72
2022/11/03 05:14:43;;;;;;;8.80;5.88;;;;;;;22.71;44.13;95498.53;5028833;28;20049;-63
2022/11/03 05:17:22;;;;;;;9.43;6.38;;;;;;;22.72;43.74;95505.44;5025992;28;20094;-73
2022/11/03 05:19:47;;;;;;;7.75;5.68;;;;;;;22.88;43.57;95517.13;5039653;28;20043;-65
2022/11/03 05:22:17;;;;;;;9.90;6.72;;;;;;;22.97;43.77;95508.75;5045595;28;20032;-71
2022/11/03 05:24:43;;;;;;;9.23;6.65;;;;;;;22.70;44.00;95494.31;5028520;28;20056;-63
2022/11/03 05:27:15;;;;;;;10.80;6.95;;;;;;;22.72;44.05;95478.22;5028496;28;20036;-66
2022/11/03 05:29:40;;;;;;;10.38;6.78;;;;;;;22.16;43.86;95388.81;5045197;28;20512;-70
2022/11/03 05:32:18;;;;;;;8.95;6.47;;;;;;;22.95;44.00;95505.75;5026228;28;20052;-61
2022/11/03 05:34:47;;;;;;;10.45;6.60;;;;;;;23.18;43.39;95509.97;5050972;28;20663;-69
2022/11/03 05:37:22;;;;;;;8.52;6.25;;;;;;;23.01;43.81;95520.13;5044567;28;20036;-70
2022/11/03 05:39:47;;;;;;;10.27;6.43;;;;;;;23.01;43.77;95517.41;5044767;28;20121;-64
2022/11/03 05:42:22;;;;;;;9.65;6.38;;;;;;;23.31;43.33;95512.94;5062379;28;20052;-69
2022/11/03 05:44:50;;;;;;;9.52;6.10;;;;;;;23.15;44.14;95521.88;5058469;28;20044;-69
2022/11/03 05:47:45;;;;;;;9.20;6.40;;;;;;;23.12;43.59;95547.38;5003080;28;20043;-67
2022/11/03 05:50:19;;;;;;;7.68;5.82;;;;;;;23.10;43.92;95533.50;5020446;28;20045;-69
2022/11/03 05:52:45;;;;;;;8.75;6.22;;;;;;;22.99;43.75;95508.97;5037133;28;20033;-69
2022/11/03 05:55:28;;;;;;;8.23;5.75;;;;;;;23.21;43.86;95533.50;5017535;28;20025;-63
2022/11/03 05:57:55;;;;;;;9.02;6.10;;;;;;;23.40;43.05;95550.84;5056381;28;20147;-65
2022/11/03 06:00:41;;;;;;;8.38;5.78;;;;;;;23.31;43.34;95548.38;5020654;28;20123;-73
2022/11/03 06:03:08;;;;;;;9.50;6.38;;;;;;;23.34;43.16;95561.00;5061850;28;20433;-69
2022/11/03 06:05:34;;;;;;;8.82;5.85;;;;;;;23.17;43.05;95527.56;5044436;28;20538;-71
2022/11/03 06:08:02;;;;;;;8.77;6.47;;;;;;;22.57;42.78;95415.09;5029737;28;20041;-69
2022/11/03 06:10:31;;;;;;;9.30;6.22;;;;;;;23.78;42.45;95547.34;5049700;28;20043;-64
2022/11/03 06:13:18;;;;;;;9.52;6.28;;;;;;;23.86;42.32;95547.09;5041552;28;20052;-71
2022/11/03 06:15:45;;;;;;;9.07;6.07;;;;;;;23.14;42.71;95476.78;5027515;28;20056;-71
2022/11/03 06:18:14;;;;;;;8.68;5.75;;;;;;;23.66;42.74;95556.78;5041351;28;20044;-68
2022/11/03 06:20:39;;;;;;;9.60;5.90;;;;;;;23.01;42.69;95503.78;5040654;28;20049;-72
2022/11/03 06:23:08;;;;;;;9.25;6.30;;;;;;;23.76;42.45;95549.84;5060245;28;20420;-68
2022/11/03 06:25:35;;;;;;;8.98;5.75;;;;;;;23.82;42.45;95553.31;5028625;28;20044;-64
2022/11/03 06:28:02;;;;;;;8.15;5.78;;;;;;;24.03;42.02;95564.16;5023009;28;20040;-67
2022/11/03 06:30:29;;;;;;;8.55;5.57;;;;;;;24.16;41.55;95588.94;5028795;28;20110;-70
2022/11/03 06:32:57;;;;;;;9.18;5.55;;;;;;;24.28;41.22;95563.09;5058719;28;20129;-72
2022/11/03 06:35:23;;;;;;;8.60;5.35;;;;;;;24.44;41.40;95570.53;5041688;28;20060;-62
2022/11/03 06:37:49;;;;;;;8.30;5.40;;;;;;;23.36;41.53;95441.31;5027561;28;20032;-74
2022/11/03 06:40:14;;;;;;;7.50;5.28;;;;;;;24.25;41.74;95574.28;5029356;28;20529;-73
2022/11/03 06:42:39;;;;;;;8.63;5.68;;;;;;;24.27;42.49;95567.06;5062069;28;20061;-71
2022/11/03 06:45:32;;;;;;;9.60;5.90;;;;;;;24.43;42.38;95564.31;5034743;28;20040;-71
2022/11/03 06:47:57;;;;;;;9.63;6.03;;;;;;;24.20;43.34;95573.06;5031890;28;20441;-60
2022/11/03 06:50:30;;;;;;;9.65;5.68;;;;;;;24.47;42.85;95572.25;5027389;28;20044;-63
2022/11/03 06:52:56;;;;;;;9.15;5.72;;;;;;;24.24;43.52;95557.16;5055250;28;20141;-73
2022/11/03 06:55:27;;;;;;;8.38;6.10;;;;;;;23.67;43.98;95454.66;5023756;28;20548;-76
2022/11/03 06:57:56;;;;;;;10.23;5.70;;;;;;;24.34;43.61;95577.50;5012709;28;20088;-71
2022/11/03 07:00:27;;;;;;;8.55;5.05;;;;;;;24.58;42.87;95575.66;5040412;28;20064;-72
2022/11/03 07:03:00;;;;;;;8.48;5.30;;;;;;;24.00;42.66;95458.75;5043412;28;20032;-73
2022/11/03 07:05:27;;;;;;;9.90;5.78;;;;;;;24.25;42.33;95509.50;5050884;28;20050;-75
2022/11/03 07:07:57;;;;;;;8.85;5.63;;;;;;;24.79;42.28;95562.41;5025365;28;20072;-65
2022/11/03 07:10:27;;;;;;;9.02;5.68;;;;;;;24.76;42.29;95552.50;5022569;28;20028;-72
2022/11/03 07:12:52;;;;;;;11.95;5.82;;;;;;;24.75;41.95;95545.53;5028182;28;20048;-69
2022/11/03 07:15:39;;;;;;;12.32;5.82;;;;;;;24.61;42.09;95549.34;5042398;28;20052;-68
2022/11/03 07:18:17;;;;;;;10.18;5.80;;;;;;;24.62;42.57;95553.53;5017092;28;20048;-76
2022/11/03 07:20:42;;;;;;;8.00;5.55;;;;;;;24.45;42.44;95552.88;5059707;28;20109;-66
2022/11/03 07:23:09;;;;;;;7.80;5.47;;;;;;;24.52;42.11;95560.56;5011544;28;20042;-74
2022/11/03 07:25:35;;;;;;;10.80;6.22;;;;;;;24.31;42.23;95528.59;5043261;28;20028;-75
2022/11/03 07:28:00;;;;;;;10.77;6.15;;;;;;;24.43;42.68;95549.91;5059054;28;20101;-68
2022/11/03 07:30:29;;;;;;;9.57;5.60;;;;;;;23.54;42.18;95438.06;5057989;28;20074;-72
2022/11/03 07:32:59;;;;;;;8.57;5.13;;;;;;;24.44;42.36;95559.59;5058475;28;20058;-66
2022/11/03 07:35:43;;;;;;;8.75;5.57;;;;;;;24.13;42.50;95557.19;5041906;28;20102;-70
2022/11/03 07:38:18;;;;;;;8.95;5.72;;;;;;;23.28;42.40;95424.00;5065418;23;20121;-64
2022/11/03 07:40:43;;;;;;;8.75;5.57;;;;;;;23.02;42.21;95366.34;5027460;28;20054;-62
2022/11/03 07:43:21;;;;;;;8.65;5.68;;;;;;;22.80;42.16;95324.03;5064997;28;20050;-64
2022/11/03 07:45:58;;;;;;;8.70;5.45;;;;;;;24.11;42.45;95553.47;5020204;28;20037;-66
2022/11/03 07:48:27;;;;;;;7.18;5.32;;;;;;;23.78;43.10;95517.34;5007708;28;20044;-63
2022/11/03 07:50:56;;;;;;;9.80;6.05;;;;;;;24.24;42.57;95568.06;5055164;28;20063;-67
2022/11/03 07:53:38;;;;;;;6.90;4.93;;;;;;;24.18;42.23;95564.59;5046913;28;20055;-64
2022/11/03 07:56:46;;;;;;;9.40;5.80;;;;;;;23.26;42.46;95436.63;5039255;28;20045;-63
2022/11/03 07:59:18;;;;;;;9.70;6.38;;;;;;;23.95;42.98;95546.81;5034818;28;20458;-65
2022/11/03 08:01:53;;;;;;;7.72;5.60;;;;;;;23.95;42.30;95552.28;5046112;28;20064;-63
2022/11/03 08:04:32;;;;;;;8.10;5.68;;;;;;;23.92;42.59;95526.00;5013899;28;20556;-65
2022/11/03 08:06:58;;;;;;;8.48;6.07;;;;;;;23.72;42.74;95511.16;5012865;28;20062;-61
2022/11/03 08:09:23;;;;;;;8.90;5.93;;;;;;;23.99;42.79;95536.41;5046032;28;20252;-63
2022/11/03 08:11:49;;;;;;;9.38;6.15;;;;;;;23.95;42.63;95535.91;5064354;28;20045;-62
2022/11/03 08:14:14;;;;;;;7.45;5.25;;;;;;;23.97;42.58;95532.69;5064278;28;20117;-66
2022/11/03 08:16:40;;;;;;;8.60;6.25;;;;;;;24.00;42.34;95532.41;5064311;28;20047;-64
2022/11/03 08:19:05;;;;;;;9.82;5.90;;;;;;;23.95;42.30;95535.91;5046749;28;20646;-65
2022/11/03 08:21:31;;;;;;;7.53;5.72;;;;;;;22.97;42.05;95382.69;5057572;28;20041;-64
2022/11/03 08:23:56;;;;;;;8.63;6.00;;;;;;;23.29;42.11;95419.28;5042821;28;20101;-66
2022/11/03 08:26:22;;;;;;;9.10;5.97;;;;;;;22.86;42.01;95349.28;5045954;28;20036;-63
2022/11/03 08:28:47;;;;;;;8.48;5.72;;;;;;;23.96;42.55;95521.03;5064753;28;20533;-62
2022/11/03 08:31:12;;;;;;;8.27;6.18;;;;;;;24.00;42.12;95516.03;5064923;28;20508;-65
2022/11/03 08:33:38;;;;;;;11.00;5.82;;;;;;;23.87;42.31;95524.03;5063837;28;20623;-64
2022/11/03 08:36:04;;;;;;;8.38;6.20;;;;;;;23.77;42.23;95491.34;5064033;28;20055;-63
2022/11/03 08:38:29;;;;;;;8.68;6.07;;;;;;;23.89;42.23;95516.09;5064553;28;20135;-61
2022/11/03 08:40:57;;;;;;;8.50;5.57;;;;;;;23.84;42.34;95518.09;5044225;28;20037;-66
2022/11/03 08:43:22;;;;;;;11.00;6.63;;;;;;;23.85;42.87;95519.59;5053061;28;20029;-64
2022/11/03 08:45:52;;;;;;;8.70;6.00;;;;;;;22.54;42.50;95329.00;5025497;28;20387;-65
2022/11/03 08:48:26;;;;;;;7.97;5.18;;;;;;;23.86;42.67;95536.19;5057940;28;20060;-64
2022/11/03 08:50:53;;;;;;;6.97;5.55;;;;;;;23.85;42.21;95520.31;5046499;28;20049;-61
2022/11/03 08:53:19;;;;;;;8.00;5.40;;;;;;;23.75;42.82;95518.34;5035019;28;20203;-62
2022/11/03 08:55:44;;;;;;;9.18;5.72;;;;;;;23.77;42.56;95530.25;5046351;28;20119;-64
2022/11/03 08:58:09;;;;;;;9.85;6.20;;;;;;;23.66;42.49;95507.72;5064598;28;20473;-63
2022/11/03 09:00:35;;;;;;;9.07;5.80;;;;;;;22.66;42.60;95357.69;5063913;28;20056;-64
2022/11/03 09:03:00;;;;;;;8.48;6.07;;;;;;;23.48;42.86;95487.16;5063922;28;20051;-63
2022/11/03 09:05:26;;;;;;;8.10;6.18;;;;;;;23.70;42.67;95513.66;5063808;28;20490;-64
2022/11/03 09:07:51;;;;;;;7.25;5.60;;;;;;;23.48;43.22;95492.63;5063627;28;20025;-64
2022/11/03 09:10:17;;;;;;;8.30;6.00;;;;;;;23.72;42.88;95517.38;5067443;28;20025;-65
2022/11/03 09:12:42;;;;;;;11.70;6.35;;;;;;;23.69;42.96;95529.28;5067358;28;20048;-63
2022/11/03 09:15:08;;;;;;;8.23;5.95;;;;;;;23.72;42.82;95511.16;5049418;28;20040;-65
2022/11/03 09:17:33;;;;;;;7.90;5.72;;;;;;;23.71;42.52;95501.53;5067343;28;20075;-62
2022/11/03 09:19:59;;;;;;;8.50;5.78;;;;;;;23.65;42.88;95496.06;5067679;28;20429;-64
2022/11/03 09:22:24;;;;;;;8.65;6.03;;;;;;;22.64;42.75;95347.28;5067713;28;20032;-64
2022/11/03 09:24:50;;;;;;;8.60;5.78;;;;;;;23.69;42.70;95495.81;5059098;28;20039;-65
2022/11/03 09:27:15;;;;;;;8.93;6.38;;;;;;;23.67;42.58;95492.84;5066791;28;20313;-62
2022/11/03 09:29:41;;;;;;;9.43;6.13;;;;;;;23.53;42.78;95467.31;5049299;28;20509;-64
2022/11/03 09:32:07;;;;;;;7.82;6.03;;;;;;;23.62;43.03;95469.03;5048756;28;20362;-63
2022/11/03 09:34:32;;;;;;;8.02;5.95;;;;;;;22.73;42.72;95357.19;5067326;28;20511;-63
2022/11/03 09:36:57;;;;;;;9.02;6.57;;;;;;;22.83;42.65;95339.38;5048357;28;20061;-64
2022/11/03 09:39:23;;;;;;;8.30;6.05;;;;;;;23.73;42.85;95458.13;5066991;28;20457;-65
2022/11/03 09:41:49;;;;;;;8.85;6.30;;;;;;;23.68;42.38;95456.16;5067212;28;20753;-65
2022/11/03 09:44:14;;;;;;;8.07;5.93;;;;;;;23.75;42.49;95461.09;5048913;28;20044;-65
2022/11/03 09:46:40;;;;;;;9.50;6.15;;;;;;;22.71;42.17;95294.34;5020553;28;20056;-65
2022/11/03 09:49:05;;;;;;;8.20;5.88;;;;;;;22.54;42.47;95275.31;5067322;28;20388;-61
2022/11/03 09:51:31;;;;;;;9.73;6.03;;;;;;;23.79;42.63;95461.56;5066549;28;20044;-64
2022/11/03 09:53:57;;;;;;;9.07;6.32;;;;;;;23.59;42.11;95410.78;5043275;28;20040;-63
2022/11/03 09:56:23;;;;;;;7.93;6.38;;;;;;;23.87;42.24;95455.84;5048853;28;20036;-66
2022/11/03 09:58:49;;;;;;;8.85;6.43;;;;;;;23.86;42.28;95452.88;5066792;28;20056;-62
2022/11/03 10:01:14;;;;;;;8.57;6.53;;;;;;;23.82;42.00;95449.66;5067008;28;20035;-64
2022/11/03 10:03:39;;;;;;;11.25;6.63;;;;;;;23.70;42.17;95420.94;5038697;28;20088;-65
2022/11/03 10:06:05;;;;;;;9.00;6.20;;;;;;;23.86;41.91;95433.78;5065998;28;20052;-65
2022/11/03 10:08:31;;;;;;;9.15;5.90;;;;;;;23.53;41.88;95384.81;5066024;28;20041;-66
2022/11/03 10:10:57;;;;;;;9.05;6.13;;;;;;;23.90;41.80;95433.03;5031401;28;20497;-62
2022/11/03 10:13:28;;;;;;;9.10;6.00;;;;;;;23.87;42.13;95431.28;5067137;28;20035;-64
2022/11/03 10:15:53;;;;;;;9.63;6.25;;;;;;;23.13;42.08;95330.91;5031686;28;20067;-60
2022/11/03 10:18:19;;;;;;;11.88;6.43;;;;;;;23.87;42.10;95457.84;5067143;28;20445;-61
2022/11/03 10:20:44;;;;;;;10.70;6.88;;;;;;;23.66;41.85;95393.19;5049005;28;20074;-62
2022/11/03 10:23:10;;;;;;;8.98;5.72;;;;;;;23.09;42.10;95297.75;5056945;28;20469;-63
2022/11/03 10:25:39;;;;;;;8.20;6.03;;;;;;;23.72;42.32;95381.03;5057750;28;20505;-64
2022/11/03 10:28:23;;;;;;;8.65;6.13;;;;;;;23.92;42.26;95400.50;5041424;28;20516;-63
2022/11/03 10:30:57;;;;;;;9.07;6.07;;;;;;;23.92;41.82;95405.25;5028885;28;20166;-63
2022/11/03 10:33:29;;;;;;;9.05;6.07;;;;;;;23.89;42.27;95401.53;5032216;28;20036;-62
2022/11/03 10:36:25;;;;;;;9.90;6.50;;;;;;;23.77;41.72;95387.72;5065736;28;20052;-63
2022/11/03 10:38:50;;;;;;;9.85;6.22;;;;;;;23.90;42.19;95386.66;5048316;28;20071;-63
2022/11/03 10:41:20;;;;;;;8.40;6.03;;;;;;;23.35;41.94;95319.94;5046297;28;20086;-63
2022/11/03 10:44:01;;;;;;;9.63;6.07;;;;;;;23.89;42.30;95378.97;5046628;28;20036;-62
2022/11/03 10:46:27;;;;;;;8.23;5.80;;;;;;;23.89;41.95;95385.16;5037145;28;20064;-63
2022/11/03 10:49:14;;;;;;;9.48;6.22;;;;;;;23.85;41.96;95350.47;5048673;28;20506;-62
2022/11/03 10:51:41;;;;;;;9.00;5.82;;;;;;;23.86;42.28;95330.16;5011226;28;20083;-65
2022/11/03 10:54:09;;;;;;;8.43;5.97;;;;;;;24.14;42.14;95367.66;5027902;28;20045;-61
2022/11/03 10:56:35;;;;;;;11.00;6.22;;;;;;;24.11;41.78;95357.75;5042290;28;20055;-63
2022/11/03 10:59:00;;;;;;;8.20;5.97;;;;;;;23.50;41.68;95268.59;5031959;28;20049;-64
2022/11/03 11:01:25;;;;;;;9.18;6.93;;;;;;;23.85;41.74;95304.09;5059328;28;20036;-67
2022/11/03 11:03:51;;;;;;;10.68;6.40;;;;;;;23.10;41.73;95201.16;5047747;28;20052;-64
2022/11/03 11:06:28;;;;;;;7.90;6.18;;;;;;;24.19;41.61;95347.78;5065390;28;20060;-63
2022/11/03 11:08:59;;;;;;;9.85;5.75;;;;;;;24.24;41.66;95338.81;5059716;28;20048;-65
2022/11/03 11:11:24;;;;;;;7.93;5.70;;;;;;;24.32;41.46;95345.22;5040908;28;20055;-65
2022/11/03 11:14:27;;;;;;;8.70;5.70;;;;;;;24.34;41.03;95343.47;5065284;28;20024;-65
2022/11/03 11:16:59;;;;;;;7.88;4.97;;;;;;;24.55;40.86;95330.16;5065153;28;20473;-62
2022/11/03 11:19:25;;;;;;;8.60;5.70;;;;;;;24.63;40.47;95320.16;5059244;28;20044;-64
2022/11/03 11:21:54;;;;;;;14.13;5.72;;;;;;;24.80;40.37;95328.94;5014408;28;20549;-67
2022/11/03 11:24:42;;;;;;;8.65;5.72;;;;;;;24.87;40.03;95329.88;5056360;28;20055;-62
2022/11/03 11:27:35;;;;;;;8.13;5.40;;;;;;;24.86;39.83;95317.47;5043830;28;20041;-66
2022/11/03 11:30:06;;;;;;;8.85;5.35;;;;;;;24.99;39.82;95303.97;5041216;28;20047;-65
2022/11/03 11:32:41;;;;;;;10.07;5.82;;;;;;;25.05;39.28;95312.06;5042921;28;20052;-63
2022/11/03 11:35:30;;;;;;;8.57;5.57;;;;;;;25.13;39.00;95313.00;5035108;28;20490;-65
2022/11/03 11:37:55;;;;;;;10.33;5.33;;;;;;;25.23;39.48;95306.69;5002213;28;20053;-63
2022/11/03 11:40:23;;;;;;;9.48;5.45;;;;;;;25.17;39.50;95297.03;5041210;28;20279;-65
2022/11/03 11:43:01;;;;;;;12.20;6.55;;;;;;;25.38;39.09;95301.50;5031286;28;20052;-64
2022/11/03 11:46:03;;;;;;;9.93;5.88;;;;;;;25.35;38.90;95288.88;5024623;28;20534;-64
2022/11/03 11:48:29;;;;;;;11.20;5.95;;;;;;;25.50;37.69;95286.44;5042807;23;20687;-67
2022/11/03 11:50:56;;;;;;;11.35;6.00;;;;;;;25.46;37.68;95307.91;5044695;28;20052;-65
2022/11/03 11:53:21;;;;;;;12.48;6.55;;;;;;;25.47;36.91;95284.75;5029166;28;20053;-65
2022/11/03 11:55:56;;;;;;;9.32;5.25;;;;;;;25.43;37.02;95282.31;5042981;28;20034;-71
2022/11/03 11:58:42;;;;;;;8.82;5.05;;;;;;;25.01;36.29;95235.88;5041023;28;20041;-71
2022/11/03 12:01:29;;;;;;;11.95;5.90;;;;;;;25.46;36.07;95269.59;5044281;28;20091;-68
2022/11/03 12:03:56;;;;;;;12.95;5.68;;;;;;;25.43;36.11;95276.09;5039810;28;20044;-63